Time;durP1;ratioP1;P1;durP2;ratioP2;P2;SDS_P1;SDS_P2;PMS_P1;PMS_P2;Temp;Humidity;BMP_temperature;BMP_pressure;BME280_temperature;BME280_humidity;BME280_pressure;Samples;Min_cycle;Max_cycle;Signal;HPM_P1;HPM_P2
2023/06/03 00:09:26;;;;;;;5.50;4.80;;;;;;;18.53;100.00;100511.64;102753;1294;617464;-88
2023/06/03 00:11:54;;;;;;;7.20;5.00;;;;;;;18.49;100.00;100516.16;104867;1266;59769;-89
2023/06/03 00:14:21;;;;;;;7.50;4.70;;;;;;;18.47;100.00;100516.70;105041;1266;60480;-88
2023/06/03 00:16:48;;;;;;;7.80;5.30;;;;;;;18.43;100.00;100513.83;105020;1266;71230;-93
2023/06/03 00:19:15;;;;;;;7.40;5.20;;;;;;;18.40;100.00;100514.83;105160;1266;63824;-90
2023/06/03 00:21:49;;;;;;;6.30;4.90;;;;;;;18.35;100.00;100514.92;104433;1270;1052859;-88
2023/06/03 00:24:17;;;;;;;7.10;5.80;;;;;;;18.31;100.00;100508.27;105830;1267;61295;-92
2023/06/03 00:26:43;;;;;;;6.80;4.70;;;;;;;18.27;100.00;100508.45;105672;1263;60306;-89
2023/06/03 00:29:10;;;;;;;5.70;4.90;;;;;;;18.24;100.00;100505.57;105329;1262;71135;-89
2023/06/03 00:31:37;;;;;;;7.50;5.20;;;;;;;18.20;100.00;100503.09;105319;1267;62599;-89
2023/06/03 00:34:04;;;;;;;10.90;5.50;;;;;;;18.17;100.00;100501.84;105223;1267;72528;-89
2023/06/03 00:36:32;;;;;;;7.10;5.90;;;;;;;18.13;100.00;100503.40;105228;1268;62122;-91
2023/06/03 00:38:59;;;;;;;6.00;5.30;;;;;;;18.09;100.00;100504.47;105288;1262;60216;-89
2023/06/03 00:41:26;;;;;;;6.60;5.10;;;;;;;18.07;100.00;100497.09;105133;1267;73058;-89
2023/06/03 00:43:53;;;;;;;7.80;5.40;;;;;;;18.04;100.00;100491.38;105178;1263;62404;-90
2023/06/03 00:46:20;;;;;;;6.80;5.00;;;;;;;18.01;100.00;100491.95;105213;1263;72507;-88
2023/06/03 00:48:47;;;;;;;9.70;5.50;;;;;;;17.98;100.00;100488.88;105221;1263;61669;-93
2023/06/03 00:51:14;;;;;;;5.20;4.70;;;;;;;17.95;100.00;100488.67;105204;1262;60323;-90
2023/06/03 00:53:41;;;;;;;8.30;5.30;;;;;;;17.93;100.00;100486.52;105264;1264;73044;-89
2023/06/03 00:56:07;;;;;;;7.50;5.30;;;;;;;17.91;100.00;100490.93;105221;1267;63953;-92
2023/06/03 00:58:35;;;;;;;5.90;5.40;;;;;;;17.90;100.00;100491.39;105201;1262;71755;-92
2023/06/03 01:01:02;;;;;;;8.80;5.80;;;;;;;17.89;100.00;100482.82;105148;1263;60735;-90
2023/06/03 01:03:31;;;;;;;6.00;5.40;;;;;;;17.89;100.00;100479.89;105555;1256;60314;-91
2023/06/03 01:06:34;;;;;;;9.10;5.70;;;;;;;17.88;100.00;100481.93;105536;1256;73054;-89
2023/06/03 01:09:22;;;;;;;6.00;5.20;;;;;;;17.85;100.00;100480.59;105493;1256;64449;-89
2023/06/03 01:12:15;;;;;;;11.30;5.70;;;;;;;17.83;100.00;100486.27;105893;1256;72635;-89
2023/06/03 01:14:44;;;;;;;7.50;5.70;;;;;;;17.80;100.00;100483.98;105878;1256;61841;-85
2023/06/03 01:17:12;;;;;;;8.50;5.60;;;;;;;17.77;100.00;100483.92;105994;1255;60349;-87
2023/06/03 01:19:49;;;;;;;7.00;6.30;;;;;;;17.75;100.00;100483.53;105891;1252;73037;-89
2023/06/03 01:22:17;;;;;;;9.90;6.30;;;;;;;17.72;100.00;100482.98;105916;1255;63894;-88
2023/06/03 01:24:44;;;;;;;6.60;5.90;;;;;;;17.71;100.00;100480.11;105944;1253;72735;-89
2023/06/03 01:27:12;;;;;;;6.90;6.10;;;;;;;17.69;100.00;100482.53;105980;1253;60814;-89
2023/06/03 01:29:42;;;;;;;7.70;5.30;;;;;;;17.67;100.00;100481.84;105932;1255;59510;-88
2023/06/03 01:32:12;;;;;;;7.30;5.00;;;;;;;17.66;100.00;100475.05;105867;1255;73354;-89
2023/06/03 01:34:42;;;;;;;8.80;6.90;;;;;;;17.64;100.00;100473.81;105896;1255;63919;-87
2023/06/03 01:37:09;;;;;;;9.80;5.70;;;;;;;17.61;100.00;100479.87;105955;1253;72618;-88
2023/06/03 01:39:37;;;;;;;6.10;5.40;;;;;;;17.59;100.00;100482.90;105897;1255;62041;-91
2023/06/03 01:42:04;;;;;;;7.60;5.20;;;;;;;17.57;100.00;100480.42;105824;1258;60238;-88
2023/06/03 01:44:31;;;;;;;6.30;5.20;;;;;;;17.56;100.00;100475.04;105960;1254;73091;-90
2023/06/03 01:46:59;;;;;;;7.40;5.60;;;;;;;17.55;100.00;100474.48;105901;1255;63616;-89
2023/06/03 01:49:26;;;;;;;11.80;7.50;;;;;;;17.54;100.00;100473.64;105824;1253;72450;-87
2023/06/03 01:51:53;;;;;;;20.50;14.50;;;;;;;17.53;100.00;100478.34;105764;1252;59589;-91
2023/06/03 01:54:25;;;;;;;12.50;9.40;;;;;;;17.50;100.00;100478.06;105898;1253;59613;-88
2023/06/03 01:56:53;;;;;;;11.60;7.30;;;;;;;17.47;100.00;100480.35;105940;1255;73133;-90
2023/06/03 01:59:24;;;;;;;12.00;7.40;;;;;;;17.41;100.00;100477.48;105769;1258;63732;-89
2023/06/03 02:01:55;;;;;;;10.70;6.60;;;;;;;17.36;100.00;100472.83;105660;1253;72496;-90
2023/06/03 02:04:23;;;;;;;7.10;6.10;;;;;;;17.32;100.00;100475.13;105833;1253;62023;-90
2023/06/03 02:06:51;;;;;;;6.10;5.20;;;;;;;17.29;100.00;100477.14;105961;1255;59605;-88
2023/06/03 02:09:20;;;;;;;6.90;6.20;;;;;;;17.28;100.00;100474.10;106099;1253;73012;-87
2023/06/03 02:11:48;;;;;;;11.20;5.50;;;;;;;17.27;100.00;100479.64;108515;1253;62769;-89
2023/06/03 02:14:15;;;;;;;13.50;5.40;;;;;;;17.28;100.00;100477.25;109692;1252;71420;-86
2023/06/03 02:16:41;;;;;;;6.30;4.50;;;;;;;17.30;100.00;100478.65;106956;1255;61275;-88
2023/06/03 02:19:17;;;;;;;9.40;5.00;;;;;;;17.33;100.00;100482.09;108045;1253;59265;-87
2023/06/03 02:21:44;;;;;;;7.70;5.20;;;;;;;17.35;100.00;100488.84;106171;1257;71882;-87
2023/06/03 02:24:11;;;;;;;10.50;5.70;;;;;;;17.34;100.00;100493.02;106055;1257;63757;-86
2023/06/03 02:26:49;;;;;;;6.30;4.90;;;;;;;17.31;100.00;100491.31;105926;1253;72739;-91
2023/06/03 02:29:18;;;;;;;7.70;5.30;;;;;;;17.30;100.00;100493.70;105908;1253;60774;-88
2023/06/03 02:31:46;;;;;;;9.70;5.40;;;;;;;17.28;100.00;100493.33;106113;1253;60315;-90
2023/06/03 02:34:13;;;;;;;6.60;5.00;;;;;;;17.27;100.00;100493.82;106024;1253;72988;-90
2023/06/03 02:36:40;;;;;;;7.60;4.50;;;;;;;17.26;100.00;100494.95;105990;1256;63630;-89
2023/06/03 02:39:08;;;;;;;7.40;4.80;;;;;;;17.27;100.00;100493.39;106852;1253;72843;-90
2023/06/03 02:41:36;;;;;;;10.60;5.00;;;;;;;17.29;100.00;100497.33;106202;1256;61945;-87
2023/06/03 02:44:03;;;;;;;7.50;4.80;;;;;;;17.32;100.00;100497.77;106255;1253;59725;-87
2023/06/03 02:46:31;;;;;;;6.50;5.30;;;;;;;17.34;100.00;100497.88;106656;1256;71854;-89
2023/06/03 02:49:05;;;;;;;10.20;5.40;;;;;;;17.37;100.00;100495.89;106111;1252;64474;-89
2023/06/03 02:51:35;;;;;;;8.60;5.00;;;;;;;17.39;100.00;100497.31;105995;1257;72718;-90
2023/06/03 02:54:01;;;;;;;9.30;5.10;;;;;;;17.40;100.00;100496.70;105955;1253;61135;-88
2023/06/03 02:56:28;;;;;;;7.90;4.70;;;;;;;17.40;100.00;100495.23;105892;1255;59715;-88
2023/06/03 02:58:55;;;;;;;6.70;4.30;;;;;;;17.41;100.00;100495.73;106049;1253;71896;-89
2023/06/03 03:01:22;;;;;;;6.50;4.30;;;;;;;17.41;100.00;100495.48;106140;1253;62481;-88
2023/06/03 03:03:50;;;;;;;11.00;4.60;;;;;;;17.44;100.00;100492.29;106186;1253;72002;-88
2023/06/03 03:06:20;;;;;;;10.00;5.20;;;;;;;17.47;100.00;100496.58;106475;1256;60418;-90
2023/06/03 03:08:48;;;;;;;7.20;4.00;;;;;;;17.50;100.00;100494.33;106201;1255;60872;-90
2023/06/03 03:11:16;;;;;;;9.20;4.50;;;;;;;17.55;100.00;100497.27;106203;1256;71833;-89
2023/06/03 03:13:45;;;;;;;8.40;4.40;;;;;;;17.59;100.00;100495.25;106806;1257;63681;-88
2023/06/03 03:16:12;;;;;;;5.40;3.90;;;;;;;17.63;100.00;100492.09;107841;1253;71426;-87
2023/06/03 03:18:39;;;;;;;5.70;4.20;;;;;;;17.66;100.00;100491.45;108317;1252;62100;-86
2023/06/03 03:21:07;;;;;;;7.70;4.50;;;;;;;17.70;100.00;100491.67;109711;1252;60310;-88
2023/06/03 03:23:34;;;;;;;7.00;3.90;;;;;;;17.72;100.00;100490.71;109742;1252;71852;-87
2023/06/03 03:26:01;;;;;;;4.90;3.80;;;;;;;17.77;100.00;100490.65;109674;1253;62645;-88
2023/06/03 03:28:30;;;;;;;7.20;4.10;;;;;;;17.82;100.00;100489.69;109635;1252;71230;-88
2023/06/03 03:30:58;;;;;;;7.70;4.30;;;;;;;17.87;100.00;100490.66;109689;1252;60440;-87
2023/06/03 03:33:25;;;;;;;6.80;4.30;;;;;;;17.93;100.00;100495.20;109775;1252;59758;-89
2023/06/03 03:35:52;;;;;;;4.70;3.10;;;;;;;18.00;100.00;100500.05;109619;1252;71815;-87
2023/06/03 03:38:20;;;;;;;6.20;3.60;;;;;;;18.08;100.00;100494.92;109648;1253;62788;-87
2023/06/03 03:40:47;;;;;;;11.50;3.50;;;;;;;18.16;100.00;100497.33;109725;1252;71322;-86
2023/06/03 03:43:16;;;;;;;5.20;4.10;;;;;;;18.23;100.00;100497.90;109425;1252;58874;-87
2023/06/03 03:45:43;;;;;;;6.90;4.90;;;;;;;18.30;100.00;100496.20;109596;1252;60148;-88
2023/06/03 03:48:15;;;;;;;8.00;4.10;;;;;;;18.36;100.00;100500.59;109401;1252;71307;-87
2023/06/03 03:50:46;;;;;;;7.80;3.70;;;;;;;18.41;100.00;100508.02;109178;1252;64192;-87
2023/06/03 03:53:31;;;;;;;11.10;3.70;;;;;;;18.48;100.00;100514.30;107324;1257;71506;-89
2023/06/03 03:56:01;;;;;;;6.30;3.60;;;;;;;18.55;100.00;100520.52;107817;1251;60501;-87
2023/06/03 03:58:37;;;;;;;7.90;3.70;;;;;;;18.61;100.00;100519.02;108856;1253;60259;-90
2023/06/03 04:01:15;;;;;;;8.60;3.30;;;;;;;18.70;100.00;100526.20;107033;1253;71821;-90
2023/06/03 04:03:46;;;;;;;7.40;4.10;;;;;;;18.78;100.00;100526.45;106187;1252;62984;-92
2023/06/03 04:06:36;;;;;;;9.00;4.90;;;;;;;18.87;100.00;100529.92;106469;1252;71329;-88
2023/06/03 04:09:08;;;;;;;5.20;3.90;;;;;;;18.98;100.00;100535.39;106272;1253;59654;-90
2023/06/03 04:11:42;;;;;;;6.50;3.80;;;;;;;19.13;100.00;100535.33;106310;1253;59666;-91
2023/06/03 04:14:14;;;;;;;8.30;4.50;;;;;;;19.33;100.00;100540.55;106281;1253;73108;-89
2023/06/03 04:17:02;;;;;;;9.40;4.00;;;;;;;19.54;100.00;100541.73;106351;1256;62673;-89
2023/06/03 04:19:41;;;;;;;7.70;3.50;;;;;;;19.96;100.00;100543.96;106023;1258;72647;-88
2023/06/03 04:22:21;;;;;;;7.10;3.50;;;;;;;20.50;100.00;100545.38;106147;1253;62150;-90
2023/06/03 04:24:56;;;;;;;11.10;7.30;;;;;;;21.07;100.00;100548.40;106370;1253;60493;-90
2023/06/03 04:27:24;;;;;;;7.40;3.70;;;;;;;21.66;100.00;100547.17;106083;1258;74203;-87
2023/06/03 04:29:51;;;;;;;9.90;4.10;;;;;;;22.21;98.67;100548.91;106420;1253;63932;-87
2023/06/03 04:32:19;;;;;;;7.40;4.00;;;;;;;22.73;96.03;100552.62;106141;1253;72656;-89
2023/06/03 04:34:51;;;;;;;3.70;3.00;;;;;;;23.24;93.51;100554.05;106395;1253;60435;-87
2023/06/03 04:37:19;;;;;;;7.10;3.00;;;;;;;23.74;90.05;100557.30;106514;1253;60381;-89
2023/06/03 04:39:46;;;;;;;4.30;2.70;;;;;;;24.22;86.73;100560.80;106308;1253;73945;-89
2023/06/03 04:42:13;;;;;;;4.90;2.90;;;;;;;24.66;82.65;100559.60;106410;1253;62573;-88
2023/06/03 04:44:40;;;;;;;9.30;2.80;;;;;;;25.05;77.88;100563.11;105955;1253;71635;-89
2023/06/03 04:47:10;;;;;;;8.60;3.00;;;;;;;25.41;74.26;100564.80;106102;1255;60452;-89
2023/06/03 04:49:39;;;;;;;3.20;2.90;;;;;;;25.75;71.32;100566.44;105851;1258;60499;-87
2023/06/03 04:52:10;;;;;;;8.20;3.20;;;;;;;26.08;69.41;100565.73;105877;1253;73711;-89
2023/06/03 04:54:42;;;;;;;7.30;2.40;;;;;;;26.43;65.42;100566.98;105979;1253;62781;-89
2023/06/03 04:57:10;;;;;;;8.10;3.80;;;;;;;26.73;62.05;100566.55;105820;1258;71992;-87
2023/06/03 04:59:37;;;;;;;2.70;1.90;;;;;;;27.02;58.20;100571.77;105883;1258;60488;-87
2023/06/03 05:02:05;;;;;;;6.00;2.10;;;;;;;27.29;53.54;100573.95;105781;1258;60436;-86
2023/06/03 05:04:34;;;;;;;8.10;2.80;;;;;;;27.57;52.26;100575.48;105621;1259;72779;-87
2023/06/03 05:07:01;;;;;;;6.00;2.40;;;;;;;27.92;51.36;100578.58;105886;1259;63613;-88
2023/06/03 05:09:28;;;;;;;4.60;2.20;;;;;;;28.24;49.82;100574.27;105919;1253;73317;-89
2023/06/03 05:11:56;;;;;;;9.70;2.70;;;;;;;28.52;49.57;100573.98;106126;1257;60434;-88
2023/06/03 05:14:24;;;;;;;2.80;2.20;;;;;;;28.84;49.36;100571.90;109253;1253;60823;-88
2023/06/03 05:16:55;;;;;;;8.10;2.80;;;;;;;29.18;48.31;100578.75;109126;1253;72385;-87
2023/06/03 05:19:23;;;;;;;7.80;2.60;;;;;;;29.47;46.80;100578.13;107056;1254;62664;-88
2023/06/03 05:21:49;;;;;;;3.20;2.30;;;;;;;29.73;45.68;100575.05;107000;1258;71468;-88
2023/06/03 05:24:17;;;;;;;3.70;2.40;;;;;;;29.99;45.28;100571.08;105836;1258;60509;-89
2023/06/03 05:26:43;;;;;;;5.50;1.90;;;;;;;30.19;44.03;100567.94;106191;1253;60439;-89
2023/06/03 05:29:11;;;;;;;8.50;3.40;;;;;;;30.42;43.34;100571.56;105744;1258;74071;-90
2023/06/03 05:31:37;;;;;;;4.50;2.50;;;;;;;30.63;42.49;100573.83;105796;1253;62839;-90
2023/06/03 05:34:05;;;;;;;8.10;2.60;;;;;;;30.82;40.53;100572.91;105722;1254;72762;-92
2023/06/03 05:36:32;;;;;;;4.70;2.50;;;;;;;31.00;38.74;100577.21;105746;1257;60445;-91
2023/06/03 05:39:00;;;;;;;8.70;3.30;;;;;;;31.14;37.39;100579.69;105941;1253;60524;-89
2023/06/03 05:41:29;;;;;;;12.20;9.60;;;;;;;31.25;36.36;100579.92;105951;1256;73973;-89
2023/06/03 05:43:55;;;;;;;9.30;7.00;;;;;;;31.25;35.14;100587.46;107636;1253;63591;-88
2023/06/03 05:46:25;;;;;;;7.00;2.50;;;;;;;31.26;35.05;100592.41;109297;1253;71088;-88
2023/06/03 05:48:52;;;;;;;4.70;2.60;;;;;;;31.38;34.68;100594.42;109348;1253;60220;-87
2023/06/03 05:51:21;;;;;;;7.60;3.70;;;;;;;31.53;35.38;100594.89;109441;1253;58751;-88
2023/06/03 05:53:48;;;;;;;9.30;4.20;;;;;;;31.62;34.58;100596.88;109430;1254;72481;-87
2023/06/03 05:56:17;;;;;;;9.60;4.90;;;;;;;31.72;34.12;100594.95;109623;1253;62411;-86
2023/06/03 05:58:45;;;;;;;11.30;5.20;;;;;;;31.78;33.77;100594.67;109533;1256;71279;-87
2023/06/03 06:01:12;;;;;;;11.90;7.70;;;;;;;31.91;33.48;100591.23;109430;1258;59012;-86
2023/06/03 06:03:41;;;;;;;15.20;6.60;;;;;;;32.05;32.82;100589.02;109516;1253;58988;-86
2023/06/03 06:06:09;;;;;;;13.60;6.90;;;;;;;32.18;32.60;100592.82;109487;1253;72309;-86
2023/06/03 06:08:37;;;;;;;7.90;6.10;;;;;;;32.32;32.73;100589.52;109458;1253;62793;-88
2023/06/03 06:11:04;;;;;;;13.30;6.40;;;;;;;32.49;33.14;100591.27;109366;1258;71360;-86
2023/06/03 06:13:32;;;;;;;10.50;5.80;;;;;;;32.63;33.24;100590.21;109584;1253;59127;-88
2023/06/03 06:16:14;;;;;;;19.80;7.70;;;;;;;32.73;33.28;100587.43;109628;1253;60295;-87
2023/06/03 06:18:42;;;;;;;;;;;;;;;32.87;32.32;100587.67;109404;1253;72721;-86
2023/06/03 06:21:10;;;;;;;12.50;6.70;;;;;;;33.05;31.73;100582.82;108776;1258;62643;-87
2023/06/03 06:23:43;;;;;;;15.10;7.40;;;;;;;33.13;31.83;100579.95;109028;1253;71144;-87
2023/06/03 06:26:16;;;;;;;8.00;5.60;;;;;;;33.21;31.40;100580.05;109252;1253;58959;-88
2023/06/03 06:28:45;;;;;;;13.30;6.10;;;;;;;33.35;31.10;100579.77;109127;1253;58949;-86
2023/06/03 06:31:12;;;;;;;9.60;6.20;;;;;;;33.52;31.46;100575.08;107390;1253;72469;-90
2023/06/03 06:33:47;;;;;;;12.80;6.90;;;;;;;33.69;31.56;100573.03;105909;1260;63000;-91
2023/06/03 06:36:39;;;;;;;23.60;16.80;;;;;;;33.86;30.51;100575.98;106297;1258;72771;-88
2023/06/03 06:39:32;;;;;;;14.60;5.80;;;;;;;34.01;29.61;100577.35;105968;1253;60430;-89
2023/06/03 06:42:10;;;;;;;9.30;5.50;;;;;;;34.09;29.05;100577.38;106076;1255;60566;-89
2023/06/03 06:44:49;;;;;;;7.20;4.60;;;;;;;34.20;29.32;100579.73;105950;1254;74358;-87
2023/06/03 06:47:21;;;;;;;10.20;4.60;;;;;;;34.27;28.89;100575.59;106156;1255;62764;-89
2023/06/03 06:49:50;;;;;;;14.60;7.20;;;;;;;34.39;28.67;100571.23;106003;1253;71112;-89
2023/06/03 06:52:17;;;;;;;11.60;7.10;;;;;;;34.44;28.65;100567.88;105952;1255;60453;-93
2023/06/03 06:54:44;;;;;;;12.10;6.80;;;;;;;34.50;28.27;100570.61;105847;1259;60541;-88
2023/06/03 06:57:21;;;;;;;11.50;6.10;;;;;;;34.52;28.54;100571.89;106030;1255;73672;-88
2023/06/03 06:59:52;;;;;;;10.10;6.10;;;;;;;34.65;28.78;100572.63;106067;1253;62541;-88
2023/06/03 07:02:20;;;;;;;13.40;6.30;;;;;;;34.79;27.81;100567.67;105887;1258;71856;-87
2023/06/03 07:04:50;;;;;;;11.00;6.90;;;;;;;34.87;27.49;100564.61;105984;1253;60479;-91
2023/06/03 07:07:17;;;;;;;14.70;7.10;;;;;;;34.95;27.25;100566.94;105738;1254;60701;-87
2023/06/03 07:09:45;;;;;;;11.30;6.70;;;;;;;35.01;27.17;100564.17;105856;1256;73731;-89
2023/06/03 07:12:12;;;;;;;8.10;6.50;;;;;;;35.03;27.08;100565.56;106002;1259;62975;-88
2023/06/03 07:14:39;;;;;;;9.10;6.90;;;;;;;35.08;27.43;100562.23;105896;1259;72772;-88
2023/06/03 07:17:06;;;;;;;13.40;7.70;;;;;;;35.23;27.73;100564.48;105860;1259;60485;-89
2023/06/03 07:19:39;;;;;;;16.60;7.40;;;;;;;35.36;27.22;100564.71;106061;1255;60571;-89
2023/06/03 07:22:08;;;;;;;12.20;6.50;;;;;;;35.43;25.95;100566.08;106255;1253;73716;-89
2023/06/03 07:24:37;;;;;;;13.60;7.90;;;;;;;35.37;25.75;100563.52;106153;1254;64015;-92
2023/06/03 07:27:07;;;;;;;14.30;6.80;;;;;;;35.36;26.25;100559.64;106362;1255;71493;-88
2023/06/03 07:29:37;;;;;;;12.90;7.00;;;;;;;35.46;26.29;100563.06;105940;1260;60430;-89
2023/06/03 07:32:07;;;;;;;14.00;5.90;;;;;;;35.54;25.95;100566.35;106129;1258;60439;-89
2023/06/03 07:34:36;;;;;;;17.70;6.80;;;;;;;35.61;25.73;100566.36;105826;1254;73780;-88
2023/06/03 07:37:07;;;;;;;12.00;6.30;;;;;;;35.72;25.53;100568.11;105841;1257;62670;-88
2023/06/03 07:39:36;;;;;;;11.70;6.40;;;;;;;35.85;25.56;100559.69;105927;1258;72530;-94
2023/06/03 07:42:06;;;;;;;15.70;6.50;;;;;;;35.97;25.65;100564.75;105860;1257;60436;-90
2023/06/03 07:44:55;;;;;;;15.80;6.20;;;;;;;36.06;25.85;100564.73;105909;1253;60566;-91
2023/06/03 07:47:25;;;;;;;11.30;5.20;;;;;;;36.15;25.33;100563.56;105802;1254;72641;-91
2023/06/03 07:49:52;;;;;;;11.60;5.00;;;;;;;36.22;25.23;100559.14;105853;1258;63771;-89
2023/06/03 07:52:20;;;;;;;13.30;4.80;;;;;;;36.29;25.89;100554.27;105934;1256;72407;-89
2023/06/03 07:54:48;;;;;;;8.90;5.20;;;;;;;36.38;25.40;100555.06;105979;1257;60607;-90
2023/06/03 07:57:15;;;;;;;9.10;5.30;;;;;;;36.48;25.60;100556.48;106030;1255;60544;-92
2023/06/03 07:59:53;;;;;;;9.20;5.50;;;;;;;36.50;25.57;100554.96;106062;1266;72507;-88
2023/06/03 08:02:21;;;;;;;6.90;4.60;;;;;;;36.55;25.82;100556.80;106038;1256;62577;-90
2023/06/03 08:04:49;;;;;;;4.10;2.90;;;;;;;36.64;24.76;100558.45;106053;1256;71496;-90
2023/06/03 08:07:17;;;;;;;6.90;2.70;;;;;;;36.65;24.14;100559.04;106117;1257;60453;-90
2023/06/03 08:09:45;;;;;;;5.50;3.10;;;;;;;36.67;23.95;100558.06;105956;1254;60438;-90
2023/06/03 08:12:12;;;;;;;11.70;2.50;;;;;;;36.71;24.29;100558.80;106337;1258;63992;-89
2023/06/03 08:14:39;;;;;;;8.20;3.20;;;;;;;36.80;24.25;100560.19;108136;1253;60439;-90
2023/06/03 08:17:10;;;;;;;5.80;2.70;;;;;;;36.90;24.00;100559.45;108901;1253;64090;-90
2023/06/03 08:19:37;;;;;;;5.20;3.20;;;;;;;36.97;23.70;100558.33;108219;1256;61180;-92
2023/06/03 08:22:42;;;;;;;8.80;2.50;;;;;;;36.91;24.35;100558.15;108296;1253;59361;-90
2023/06/03 08:25:09;;;;;;;3.70;2.40;;;;;;;36.84;24.81;100555.02;106330;1259;72416;-89
2023/06/03 08:27:37;;;;;;;4.30;2.70;;;;;;;36.77;23.63;100553.95;106115;1259;63749;-90
2023/06/03 08:30:05;;;;;;;3.70;1.70;;;;;;;36.68;23.20;100557.04;106216;1255;72523;-93
2023/06/03 08:32:33;;;;;;;5.60;2.00;;;;;;;36.62;23.29;100551.82;105933;1259;60640;-90
2023/06/03 08:35:00;;;;;;;7.40;2.20;;;;;;;36.65;23.66;100554.62;105951;1260;60285;-92
2023/06/03 08:37:28;;;;;;;3.20;2.20;;;;;;;36.72;24.03;100559.61;105979;1258;65212;-91
2023/06/03 08:39:57;;;;;;;14.50;2.70;;;;;;;36.75;23.24;100561.53;105846;1254;60473;-90
2023/06/03 08:42:36;;;;;;;3.30;2.00;;;;;;;36.68;22.74;100561.40;105916;1258;63976;-93
2023/06/03 08:45:06;;;;;;;2.70;1.90;;;;;;;36.56;22.70;100562.20;105858;1258;60415;-92
2023/06/03 08:47:55;;;;;;;2.20;1.90;;;;;;;36.57;22.44;100563.63;106130;1254;60726;-89
2023/06/03 08:50:24;;;;;;;5.70;1.80;;;;;;;36.60;22.28;100565.52;105941;1257;72688;-90
2023/06/03 08:52:55;;;;;;;3.30;2.00;;;;;;;36.58;22.42;100569.22;105815;1257;62982;-91
2023/06/03 08:55:21;;;;;;;3.80;1.70;;;;;;;36.64;22.75;100565.98;105782;1257;64134;-93
2023/06/03 08:58:19;;;;;;;2.00;1.60;;;;;;;36.73;23.55;100570.28;105886;1261;60498;-87
2023/06/03 09:00:47;;;;;;;5.00;2.40;;;;;;;36.80;22.54;100572.05;106299;1257;60445;-90
2023/06/03 09:03:14;;;;;;;5.20;2.70;;;;;;;36.80;22.50;100567.78;105793;1255;65260;-92
2023/06/03 09:05:41;;;;;;;4.00;1.90;;;;;;;36.88;22.55;100570.10;105845;1259;60473;-90
2023/06/03 09:08:08;;;;;;;1.90;1.80;;;;;;;36.98;22.12;100571.05;106060;1257;63826;-88
2023/06/03 09:10:35;;;;;;;5.30;1.80;;;;;;;36.97;22.06;100568.01;105854;1255;60546;-90
2023/06/03 09:13:02;;;;;;;5.50;3.40;;;;;;;36.96;22.35;100570.63;105951;1257;60512;-89
2023/06/03 09:15:29;;;;;;;5.30;1.90;;;;;;;36.92;22.02;100573.35;105909;1256;65216;-90
2023/06/03 09:17:57;;;;;;;2.50;1.70;;;;;;;36.90;21.95;100571.60;105996;1258;60409;-90
2023/06/03 09:20:24;;;;;;;2.90;2.20;;;;;;;36.93;21.88;100572.75;106452;1255;63860;-89
2023/06/03 09:22:51;;;;;;;2.20;1.70;;;;;;;36.96;22.08;100570.69;105807;1255;60834;-89
2023/06/03 09:25:18;;;;;;;6.80;1.50;;;;;;;36.94;21.93;100564.39;105985;1260;60436;-91
2023/06/03 09:27:45;;;;;;;6.90;1.90;;;;;;;36.94;21.84;100564.39;106004;1253;65150;-91
2023/06/03 09:30:12;;;;;;;4.10;1.90;;;;;;;36.99;22.08;100561.77;105971;1257;60533;-87
2023/06/03 09:32:40;;;;;;;8.00;2.00;;;;;;;37.03;22.04;100568.39;105874;1254;63884;-91
2023/06/03 09:35:07;;;;;;;4.30;1.80;;;;;;;36.90;22.03;100566.34;105983;1258;60460;-88
2023/06/03 09:37:34;;;;;;;3.90;1.70;;;;;;;36.67;22.78;100565.84;106980;1254;60130;-88
2023/06/03 09:40:03;;;;;;;4.20;1.80;;;;;;;36.63;22.38;100567.08;107873;1256;65284;-87
2023/06/03 09:42:41;;;;;;;1.40;1.30;;;;;;;36.62;22.19;100566.73;106979;1254;60362;-88
2023/06/03 09:45:25;;;;;;;3.70;1.60;;;;;;;36.56;22.07;100567.34;105850;1257;63859;-92
2023/06/03 09:47:52;;;;;;;2.70;1.60;;;;;;;36.48;21.86;100571.50;105886;1257;62159;-89
2023/06/03 09:50:20;;;;;;;4.40;1.40;;;;;;;36.37;21.91;100571.67;105659;1255;60339;-87
2023/06/03 09:52:47;;;;;;;5.30;1.90;;;;;;;36.34;22.52;100572.58;106135;1257;73683;-89
2023/06/03 09:55:17;;;;;;;8.40;2.30;;;;;;;36.40;22.54;100573.27;105969;1257;63767;-89
2023/06/03 09:58:09;;;;;;;4.10;1.60;;;;;;;36.49;22.16;100574.09;105897;1253;72341;-88
2023/06/03 10:00:49;;;;;;;5.80;2.10;;;;;;;36.32;23.12;100572.35;105729;1260;60518;-89
2023/06/03 10:03:18;;;;;;;4.70;2.20;;;;;;;35.92;23.12;100574.48;105875;1255;60421;-88
2023/06/03 10:05:45;;;;;;;4.10;1.90;;;;;;;35.55;23.44;100576.56;105603;1254;73904;-92
2023/06/03 10:08:12;;;;;;;3.20;2.30;;;;;;;35.16;23.56;100573.34;105787;1261;60457;-90
2023/06/03 10:10:59;;;;;;;4.10;2.20;;;;;;;34.89;23.35;100575.05;105887;1259;72493;-90
2023/06/03 10:13:26;;;;;;;6.50;2.10;;;;;;;34.74;23.34;100572.15;105944;1254;60538;-91
2023/06/03 10:15:53;;;;;;;2.60;1.40;;;;;;;34.69;23.60;100568.98;105862;1258;60316;-88
2023/06/03 10:18:37;;;;;;;5.70;2.10;;;;;;;34.79;23.77;100567.84;105821;1253;73632;-91
2023/06/03 10:21:11;;;;;;;3.30;2.10;;;;;;;34.85;23.76;100571.79;105907;1254;63912;-89
2023/06/03 10:23:41;;;;;;;3.50;1.60;;;;;;;34.75;23.62;100574.17;106033;1256;71857;-91
2023/06/03 10:26:10;;;;;;;2.10;1.30;;;;;;;34.54;23.69;100578.99;105854;1266;60696;-89
2023/06/03 10:28:37;;;;;;;3.50;1.60;;;;;;;34.55;24.19;100572.03;106234;1253;60338;-89
2023/06/03 10:31:05;;;;;;;3.80;2.20;;;;;;;34.68;24.27;100574.67;105953;1254;72687;-87
2023/06/03 10:33:34;;;;;;;2.80;2.20;;;;;;;34.84;24.64;100574.78;105877;1257;63873;-90
2023/06/03 10:36:04;;;;;;;10.30;2.90;;;;;;;34.78;24.72;100582.55;105776;1256;71373;-92
2023/06/03 10:38:32;;;;;;;4.40;2.70;;;;;;;34.55;25.37;100588.16;105596;1259;60530;-92
2023/06/03 10:41:00;;;;;;;13.50;3.20;;;;;;;34.25;27.40;100605.38;105828;1257;60448;-90
2023/06/03 10:43:28;;;;;;;4.40;2.80;;;;;;;33.87;30.13;100610.70;105807;1257;75764;-91
2023/06/03 10:45:54;;;;;;;8.60;2.80;;;;;;;33.58;31.51;100614.19;105813;1254;64073;-86
2023/06/03 10:48:22;;;;;;;7.30;2.40;;;;;;;33.51;32.41;100613.55;105834;1254;72567;-87
2023/06/03 10:51:02;;;;;;;10.10;3.20;;;;;;;33.45;33.03;100622.20;105816;1254;60607;-91
2023/06/03 10:54:07;;;;;;;5.00;2.10;;;;;;;33.36;33.48;100625.14;105838;1253;60519;-89
2023/06/03 10:56:46;;;;;;;7.50;2.80;;;;;;;33.28;33.65;100631.01;106112;1257;72736;-89
2023/06/03 10:59:16;;;;;;;5.20;2.70;;;;;;;33.16;34.00;100630.79;106065;1257;64020;-89
2023/06/03 11:01:57;;;;;;;5.80;2.60;;;;;;;33.04;33.79;100636.38;106236;1253;72719;-88
2023/06/03 11:04:29;;;;;;;4.40;2.20;;;;;;;32.98;34.63;100639.09;105956;1258;61190;-87
2023/06/03 11:06:56;;;;;;;5.60;2.40;;;;;;;32.93;35.15;100642.61;106100;1253;60531;-88
2023/06/03 11:09:32;;;;;;;5.70;2.50;;;;;;;32.85;36.71;100650.66;106012;1258;72656;-88
2023/06/03 11:12:05;;;;;;;2.80;2.40;;;;;;;32.76;36.19;100653.94;106108;1254;62730;-86
2023/06/03 11:14:41;;;;;;;6.00;2.80;;;;;;;32.61;35.85;100661.15;107089;1253;71192;-89
2023/06/03 11:17:12;;;;;;;4.00;2.50;;;;;;;32.37;36.93;100661.46;109324;1253;59126;-89
2023/06/03 11:19:46;;;;;;;3.10;2.80;;;;;;;32.26;36.56;100663.41;108473;1254;59375;-85
2023/06/03 11:22:29;;;;;;;13.40;3.30;;;;;;;32.16;38.27;100666.71;107844;1254;74329;-89
2023/06/03 11:24:58;;;;;;;;;;;;;;;31.91;38.59;100664.33;106321;1254;62546;-85
2023/06/03 11:27:26;;;;;;;7.30;3.80;;;;;;;31.57;39.00;100669.06;105901;1253;72425;-88
2023/06/03 11:30:01;;;;;;;5.90;2.80;;;;;;;31.31;40.58;100673.59;105786;1259;60430;-89
2023/06/03 11:32:32;;;;;;;9.90;3.10;;;;;;;31.10;39.98;100674.72;105813;1257;60962;-87
2023/06/03 11:35:02;;;;;;;4.30;3.40;;;;;;;30.90;41.56;100677.54;105869;1253;74030;-89